createdAt,value
2019-04-03T00:00:04.397Z,6.92
2019-04-03T00:02:34.020Z,6.97
2019-04-03T00:05:02.970Z,7.06
2019-04-03T00:07:32.195Z,7.19
2019-04-03T00:10:00.438Z,7.32
2019-04-03T00:12:28.712Z,7.32
2019-04-03T00:14:56.975Z,7.29
2019-04-03T00:17:25.237Z,7.21
2019-04-03T00:19:53.497Z,7.20
2019-04-03T00:22:22.302Z,7.11
2019-04-03T00:24:52.004Z,7.05
2019-04-03T00:27:22.228Z,7.22
2019-04-03T00:29:52.147Z,7.19
2019-04-03T00:32:20.323Z,7.06
2019-04-03T00:34:48.592Z,7.08
2019-04-03T00:37:16.866Z,7.15
2019-04-03T00:39:45.125Z,7.18
2019-04-03T00:42:14.046Z,7.40
2019-04-03T00:44:42.320Z,7.47
2019-04-03T00:47:10.590Z,7.50
2019-04-03T00:49:38.854Z,7.44
2019-04-03T00:52:07.111Z,7.48
2019-04-03T00:54:35.393Z,7.42
2019-04-03T00:57:03.652Z,7.55
2019-04-03T00:59:31.920Z,7.40
2019-04-03T01:02:00.178Z,7.36
2019-04-03T01:04:29.097Z,7.23
2019-04-03T01:06:58.705Z,7.25
2019-04-03T01:09:29.145Z,7.27
2019-04-03T01:11:57.321Z,7.22
2019-04-03T01:14:25.604Z,7.28
2019-04-03T01:16:53.863Z,7.30
2019-04-03T01:19:22.144Z,7.45
2019-04-03T01:21:50.399Z,7.41
2019-04-03T01:24:18.711Z,7.38
2019-04-03T01:26:46.928Z,7.43
2019-04-03T01:29:15.207Z,7.40
2019-04-03T01:31:44.686Z,7.21
2019-04-03T01:34:13.489Z,7.15
2019-04-03T01:36:41.740Z,7.16
2019-04-03T01:39:10.022Z,7.35
2019-04-03T01:41:38.278Z,7.51
2019-04-03T01:44:07.324Z,7.62
2019-04-03T01:46:35.583Z,7.56
2019-04-03T01:49:03.861Z,7.53
2019-04-03T01:51:32.109Z,7.53
2019-04-03T01:54:02.375Z,7.65
2019-04-03T01:56:30.508Z,7.59
2019-04-03T01:58:59.028Z,7.57
2019-04-03T02:01:27.285Z,7.65
2019-04-03T02:03:55.707Z,7.65
2019-04-03T02:06:23.997Z,7.67
2019-04-03T02:08:52.386Z,7.71
2019-04-03T02:11:20.599Z,7.82
2019-04-03T02:13:50.993Z,7.88
2019-04-03T02:16:18.903Z,7.74
2019-04-03T02:18:47.194Z,7.55
2019-04-03T02:21:15.446Z,7.45
2019-04-03T02:23:43.723Z,7.36
2019-04-03T02:26:11.988Z,7.33
2019-04-03T02:28:40.249Z,7.34
2019-04-03T02:31:08.496Z,7.25
2019-04-03T02:33:36.773Z,7.14
2019-04-03T02:36:05.794Z,7.22
2019-04-03T02:38:34.419Z,7.28
2019-04-03T02:41:04.133Z,7.31
2019-04-03T02:43:32.661Z,7.32
2019-04-03T02:46:00.938Z,7.28
2019-04-03T02:48:29.274Z,7.33
2019-04-03T02:50:57.913Z,7.17
2019-04-03T02:53:27.528Z,7.07
2019-04-03T02:55:56.754Z,7.07
2019-04-03T02:58:24.986Z,6.91
2019-04-03T03:00:53.345Z,6.75
2019-04-03T03:03:22.606Z,6.91
2019-04-03T03:05:50.941Z,6.88
2019-04-03T03:08:22.501Z,6.75
2019-04-03T03:10:51.592Z,6.68
2019-04-03T03:13:19.447Z,6.62
2019-04-03T03:15:47.755Z,6.51
2019-04-03T03:18:16.073Z,6.37
2019-04-03T03:20:44.680Z,6.54
2019-04-03T03:23:13.005Z,6.43
2019-04-03T03:25:41.318Z,6.49
2019-04-03T03:28:13.179Z,6.45
2019-04-03T03:30:46.402Z,6.47
2019-04-03T03:33:28.798Z,6.42
2019-04-03T03:35:45.226Z,6.45
2019-04-03T03:38:10.786Z,6.51
2019-04-03T03:40:39.910Z,6.80
2019-04-03T03:43:08.161Z,7.15
2019-04-03T03:45:37.157Z,7.35
2019-04-03T03:48:08.075Z,7.37
2019-04-03T03:50:36.256Z,7.55
2019-04-03T03:53:04.510Z,7.73
2019-04-03T03:55:32.785Z,7.59
2019-04-03T03:58:01.110Z,7.37
2019-04-03T04:00:29.556Z,7.33
2019-04-03T04:02:57.805Z,7.02
2019-04-03T04:05:26.104Z,6.96
2019-04-03T04:07:55.628Z,7.24
2019-04-03T04:10:26.296Z,7.21
2019-04-03T04:12:54.631Z,7.12
2019-04-03T04:15:22.892Z,7.04
2019-04-03T04:17:52.319Z,7.03
2019-04-03T04:20:20.951Z,7.09
2019-04-03T04:22:51.402Z,7.12
2019-04-03T04:25:19.881Z,7.21
2019-04-03T04:27:49.475Z,7.11
2019-04-03T04:30:19.645Z,7.16
2019-04-03T04:32:47.918Z,7.26
2019-04-03T04:35:16.353Z,7.26
2019-04-03T04:37:44.612Z,7.24
2019-04-03T04:40:12.891Z,7.17
2019-04-03T04:42:41.217Z,7.14
2019-04-03T04:45:09.776Z,7.11
2019-04-03T04:47:39.788Z,7.03
2019-04-03T04:50:08.035Z,7.03
2019-04-03T04:52:37.082Z,7.17
2019-04-03T04:55:06.074Z,7.16
2019-04-03T04:57:34.541Z,7.34
2019-04-03T05:00:03.239Z,7.29
2019-04-03T05:02:32.634Z,7.31
2019-04-03T05:05:00.972Z,7.36
2019-04-03T05:07:30.862Z,7.37
2019-04-03T05:09:59.128Z,7.42
2019-04-03T05:12:27.557Z,7.22
2019-04-03T05:14:55.779Z,7.40
2019-04-03T05:17:26.136Z,7.33
2019-04-03T05:19:54.041Z,7.18
2019-04-03T05:22:23.945Z,7.25
2019-04-03T05:24:51.993Z,7.35
2019-04-03T05:27:20.285Z,7.40
2019-04-03T05:29:48.542Z,7.35
2019-04-03T05:32:16.817Z,7.59
2019-04-03T05:34:45.076Z,7.57
2019-04-03T05:37:13.924Z,7.66
2019-04-03T05:39:43.060Z,7.71
2019-04-03T05:42:12.213Z,7.93
2019-04-03T05:44:40.525Z,8.16
2019-04-03T05:47:09.439Z,8.22
2019-04-03T05:49:37.704Z,8.38
2019-04-03T05:52:06.760Z,8.52
2019-04-03T05:54:35.008Z,8.60
2019-04-03T05:57:04.005Z,8.75
2019-04-03T05:59:33.687Z,8.70
2019-04-03T06:02:14.058Z,8.73
2019-04-03T06:04:32.806Z,8.80
2019-04-03T06:07:01.297Z,8.84
2019-04-03T06:09:29.837Z,8.84
2019-04-03T06:11:59.117Z,8.89
2019-04-03T06:14:27.570Z,8.86
2019-04-03T06:16:56.718Z,8.94
2019-04-03T06:19:25.083Z,8.99
2019-04-03T06:21:53.452Z,8.96
2019-04-03T06:24:23.811Z,8.94
2019-04-03T06:26:51.700Z,9.00
2019-04-03T06:29:19.945Z,9.02
2019-04-03T06:31:48.625Z,9.05
2019-04-03T06:34:16.837Z,9.00
2019-04-03T06:36:45.117Z,9.01
2019-04-03T06:39:14.442Z,9.01
2019-04-03T06:41:43.577Z,9.02
2019-04-03T06:44:11.935Z,9.04
2019-04-03T06:46:40.191Z,9.11
2019-04-03T06:49:08.965Z,9.07
2019-04-03T06:51:37.902Z,9.09
2019-04-03T06:54:08.231Z,9.20
2019-04-03T06:56:36.921Z,9.22
2019-04-03T06:59:06.653Z,9.28
2019-04-03T07:01:35.035Z,9.32
2019-04-03T07:04:04.491Z,9.44
2019-04-03T07:06:33.829Z,9.47
2019-04-03T07:09:04.925Z,9.56
2019-04-03T07:11:33.001Z,9.66
2019-04-03T07:14:01.847Z,9.58
2019-04-03T07:16:30.434Z,9.69
2019-04-03T07:18:58.710Z,9.74
2019-04-03T07:21:27.861Z,9.84
2019-04-03T07:23:56.403Z,9.89
2019-04-03T07:26:24.658Z,9.93
2019-04-03T07:28:52.937Z,10.02
2019-04-03T07:31:23.288Z,10.14
2019-04-03T07:33:51.207Z,10.17
2019-04-03T07:36:19.468Z,10.33
2019-04-03T07:38:48.788Z,10.42
2019-04-03T07:41:17.371Z,10.52
2019-04-03T07:43:45.752Z,10.67
2019-04-03T07:46:14.007Z,10.77
2019-04-03T07:48:42.513Z,10.74
2019-04-03T07:51:12.814Z,10.78
2019-04-03T07:53:41.401Z,10.80
2019-04-03T07:56:10.425Z,10.93
2019-04-03T07:58:38.713Z,11.03
2019-04-03T08:01:09.868Z,11.15
2019-04-03T08:03:37.080Z,11.28
2019-04-03T08:06:06.243Z,11.28
2019-04-03T08:08:34.921Z,11.21
2019-04-03T08:11:03.178Z,11.15
2019-04-03T08:13:31.547Z,11.08
2019-04-03T08:16:00.550Z,11.01
2019-04-03T08:18:28.832Z,11.14
2019-04-03T08:21:00.902Z,11.08
2019-04-03T08:23:27.100Z,11.11
2019-04-03T08:25:56.122Z,11.05
2019-04-03T08:28:29.260Z,11.04
2019-04-03T08:30:54.943Z,11.03
2019-04-03T08:33:26.276Z,11.00
2019-04-03T08:35:53.541Z,10.92
2019-04-03T08:38:21.857Z,10.99
2019-04-03T08:40:52.373Z,10.93
2019-04-03T08:43:20.156Z,10.97
2019-04-03T08:45:48.523Z,10.98
2019-04-03T08:48:18.042Z,11.04
2019-04-03T08:50:46.718Z,11.06
2019-04-03T08:53:15.661Z,11.00
2019-04-03T08:55:45.894Z,10.99
2019-04-03T08:58:14.183Z,11.02
2019-04-03T09:00:42.439Z,11.03
2019-04-03T09:03:13.955Z,11.10
2019-04-03T09:05:42.007Z,11.13
2019-04-03T09:08:10.404Z,11.11
2019-04-03T09:10:38.851Z,11.03
2019-04-03T09:13:16.897Z,11.08
2019-04-03T09:15:37.869Z,11.05
2019-04-03T09:18:06.935Z,11.06
2019-04-03T09:20:37.023Z,11.08
2019-04-03T09:23:05.428Z,11.11
2019-04-03T09:25:34.267Z,11.24
2019-04-03T09:28:03.131Z,11.26
2019-04-03T09:30:31.483Z,11.37
2019-04-03T09:33:00.401Z,11.48
2019-04-03T09:35:29.046Z,11.58
2019-04-03T09:37:57.325Z,11.51
2019-04-03T09:40:25.794Z,11.43
2019-04-03T09:42:54.155Z,11.41
2019-04-03T09:45:22.587Z,11.36
2019-04-03T09:47:51.594Z,11.37
2019-04-03T09:50:22.053Z,11.38
2019-04-03T09:52:50.656Z,11.50
2019-04-03T09:55:19.122Z,11.54
2019-04-03T09:57:47.706Z,11.73
2019-04-03T10:00:16.195Z,11.75
2019-04-03T10:02:44.453Z,11.76
2019-04-03T10:05:12.737Z,11.80
2019-04-03T10:07:40.991Z,11.81
2019-04-03T10:10:09.271Z,11.77
2019-04-03T10:12:37.532Z,11.72
2019-04-03T10:15:07.439Z,11.73
2019-04-03T10:17:37.434Z,11.65
2019-04-03T10:20:07.428Z,11.82
2019-04-03T10:22:35.685Z,11.84
2019-04-03T10:25:06.428Z,11.69
2019-04-03T10:27:34.660Z,11.58
2019-04-03T10:30:04.413Z,11.40
2019-04-03T10:32:33.609Z,11.37
2019-04-03T10:35:02.364Z,11.49
2019-04-03T10:37:30.628Z,11.66
2019-04-03T10:39:59.037Z,11.71
2019-04-03T10:42:27.247Z,11.82
2019-04-03T10:44:55.683Z,12.08
2019-04-03T10:47:30.185Z,12.12
2019-04-03T10:49:53.960Z,12.21
2019-04-03T10:52:22.635Z,12.09
2019-04-03T10:54:50.849Z,11.95
2019-04-03T10:57:19.136Z,11.81
2019-04-03T10:59:52.971Z,11.75
2019-04-03T11:02:17.962Z,11.74
2019-04-03T11:04:47.004Z,11.81
2019-04-03T11:07:15.580Z,11.88
2019-04-03T11:09:44.547Z,11.94
2019-04-03T11:12:12.746Z,11.94
2019-04-03T11:14:41.202Z,11.99
2019-04-03T11:17:09.753Z,12.01
2019-04-03T11:19:38.239Z,12.07
2019-04-03T11:22:06.654Z,12.15
2019-04-03T11:24:38.529Z,12.15
2019-04-03T11:27:05.801Z,12.12
2019-04-03T11:29:34.035Z,12.23
2019-04-03T11:32:02.291Z,12.33
2019-04-03T11:34:31.142Z,12.34
2019-04-03T11:37:00.543Z,12.37
2019-04-03T11:39:29.189Z,12.25
2019-04-03T11:41:57.696Z,12.26
2019-04-03T11:44:26.106Z,12.26
2019-04-03T11:46:55.123Z,12.19
2019-04-03T11:49:23.373Z,12.15
2019-04-03T11:51:51.888Z,12.10
2019-04-03T11:54:20.174Z,12.07
2019-04-03T11:56:49.064Z,12.03
2019-04-03T11:59:17.415Z,12.02
2019-04-03T12:01:45.627Z,12.02
2019-04-03T12:04:13.988Z,12.08
2019-04-03T12:06:42.237Z,12.28
2019-04-03T12:09:10.489Z,12.48
2019-04-03T12:11:39.501Z,12.58
2019-04-03T12:14:08.478Z,12.45
2019-04-03T12:16:37.080Z,12.30
2019-04-03T12:19:05.891Z,12.23
2019-04-03T12:21:34.741Z,12.14
2019-04-03T12:24:03.899Z,12.03
2019-04-03T12:26:32.955Z,11.98
2019-04-03T12:29:01.518Z,11.95
2019-04-03T12:31:29.859Z,11.98
2019-04-03T12:34:03.887Z,10.90
2019-04-03T12:36:28.335Z,10.63
2019-04-03T12:38:57.208Z,10.36
2019-04-03T12:41:27.149Z,9.96
2019-04-03T12:43:55.887Z,9.62
2019-04-03T12:46:41.015Z,9.22
2019-04-03T12:49:09.010Z,8.95
2019-04-03T12:51:37.677Z,8.63
2019-04-03T12:54:06.431Z,8.59
2019-04-03T12:56:34.687Z,8.62
2019-04-03T12:59:03.277Z,8.30
2019-04-03T13:01:32.166Z,8.25
2019-04-03T13:04:00.466Z,8.10
2019-04-03T13:06:29.296Z,8.33
2019-04-03T13:08:58.484Z,8.21
2019-04-03T13:11:26.732Z,8.22
2019-04-03T13:13:55.109Z,8.09
2019-04-03T13:16:23.649Z,8.01
2019-04-03T13:18:51.889Z,7.83
2019-04-03T13:21:20.158Z,7.79
2019-04-03T13:23:48.614Z,7.82
2019-04-03T13:26:16.874Z,7.72
2019-04-03T13:28:45.154Z,7.86
2019-04-03T13:31:14.949Z,7.90
2019-04-03T13:33:43.418Z,7.81
2019-04-03T13:36:11.685Z,7.54
2019-04-03T13:38:40.296Z,7.41
2019-04-03T13:41:10.635Z,7.35
2019-04-03T13:43:38.957Z,7.34
2019-04-03T13:46:07.867Z,7.21
2019-04-03T13:48:36.218Z,7.25
2019-04-03T13:51:05.575Z,7.40
2019-04-03T13:53:34.196Z,7.45
2019-04-03T13:56:05.521Z,7.41
2019-04-03T13:58:32.212Z,7.37
2019-04-03T14:01:02.992Z,7.51
2019-04-03T14:03:31.013Z,7.51
2019-04-03T14:05:59.513Z,7.56
2019-04-03T14:08:28.126Z,7.61
2019-04-03T14:10:58.245Z,7.56
2019-04-03T14:13:27.448Z,7.65
2019-04-03T14:15:56.377Z,7.71
2019-04-03T14:18:25.033Z,7.85
2019-04-03T14:20:55.327Z,7.96
2019-04-03T14:23:23.928Z,8.19
2019-04-03T14:26:03.237Z,8.84
2019-04-03T14:28:22.499Z,9.30
2019-04-03T14:30:50.777Z,9.22
2019-04-03T14:33:19.728Z,9.35
2019-04-03T14:35:53.213Z,9.60
2019-04-03T14:38:18.938Z,9.65
2019-04-03T14:40:47.236Z,9.59
2019-04-03T14:43:15.495Z,9.51
2019-04-03T14:45:45.147Z,9.57
2019-04-03T14:48:15.050Z,9.25
2019-04-03T14:50:44.300Z,9.57
2019-04-03T14:53:13.105Z,9.76
2019-04-03T14:55:48.228Z,9.98
2019-04-03T14:58:12.054Z,9.96
2019-04-03T15:00:40.418Z,9.86
2019-04-03T15:03:09.240Z,9.94
2019-04-03T15:05:39.646Z,10.11
2019-04-03T15:08:08.285Z,10.24
2019-04-03T15:10:36.576Z,10.26
2019-04-03T15:13:05.096Z,10.14
2019-04-03T15:15:33.384Z,10.12
2019-04-03T15:18:02.731Z,10.00
2019-04-03T15:20:33.242Z,9.75
2019-04-03T15:23:03.495Z,9.86
2019-04-03T15:25:31.483Z,9.94
2019-04-03T15:28:00.392Z,9.75
2019-04-03T15:30:29.247Z,9.83
2019-04-03T15:32:57.979Z,9.68
2019-04-03T15:35:26.524Z,9.67
2019-04-03T15:37:55.094Z,9.67
2019-04-03T15:40:25.846Z,9.68
2019-04-03T15:42:55.183Z,9.84
2019-04-03T15:45:25.296Z,9.87
2019-04-03T15:47:57.152Z,9.91
2019-04-03T15:50:27.275Z,10.03
2019-04-03T15:52:54.905Z,10.05
2019-04-03T15:55:25.333Z,9.96
2019-04-03T15:57:54.002Z,9.84
2019-04-03T16:00:22.982Z,9.75
2019-04-03T16:02:51.260Z,9.82
2019-04-03T16:05:20.002Z,9.80
2019-04-03T16:07:49.466Z,9.77
2019-04-03T16:10:17.693Z,9.76
2019-04-03T16:12:46.736Z,9.86
2019-04-03T16:15:15.669Z,9.83
2019-04-03T16:17:44.219Z,9.86
2019-04-03T16:20:14.278Z,9.75
2019-04-03T16:22:43.446Z,9.74
2019-04-03T16:25:12.353Z,9.74
2019-04-03T16:27:40.845Z,9.70
2019-04-03T16:30:09.757Z,9.64
2019-04-03T16:32:38.093Z,9.63
2019-04-03T16:35:07.992Z,9.69
2019-04-03T16:37:37.212Z,9.45
2019-04-03T16:40:06.879Z,9.39
2019-04-03T16:42:35.534Z,9.33
2019-04-03T16:45:08.462Z,9.34
2019-04-03T16:47:36.134Z,9.40
2019-04-03T16:50:08.290Z,9.14
2019-04-03T16:52:37.838Z,8.86
2019-04-03T16:55:07.857Z,8.80
2019-04-03T16:57:37.255Z,9.06
2019-04-03T17:00:09.190Z,8.60
2019-04-03T17:02:37.205Z,8.53
2019-04-03T17:05:06.800Z,8.88
2019-04-03T17:07:37.724Z,8.81
2019-04-03T17:10:09.354Z,8.74
2019-04-03T17:12:35.729Z,8.81
2019-04-03T17:15:05.290Z,8.93
2019-04-03T17:17:33.883Z,8.84
2019-04-03T17:20:02.385Z,8.72
2019-04-03T17:22:31.024Z,8.70
2019-04-03T17:24:59.396Z,8.44
2019-04-03T17:27:30.329Z,8.26
2019-04-03T17:29:58.709Z,8.45
2019-04-03T17:32:29.895Z,8.42
2019-04-03T17:34:58.083Z,8.42
2019-04-03T17:37:29.712Z,8.42
2019-04-03T17:39:56.695Z,8.53
2019-04-03T17:42:25.893Z,8.56
2019-04-03T17:44:55.181Z,8.54
2019-04-03T17:47:23.443Z,8.64
2019-04-03T17:49:51.731Z,8.42
2019-04-03T17:52:19.988Z,8.48
2019-04-03T17:54:48.273Z,8.35
2019-04-03T17:57:17.610Z,8.32
2019-04-03T17:59:49.007Z,8.31
2019-04-03T18:02:19.296Z,8.28
2019-04-03T18:04:48.873Z,8.26
2019-04-03T18:07:18.319Z,8.27
2019-04-03T18:09:46.576Z,8.15
2019-04-03T18:12:15.927Z,8.11
2019-04-03T18:14:44.827Z,8.30
2019-04-03T18:17:13.106Z,8.24
2019-04-03T18:19:41.885Z,8.17
2019-04-03T18:22:11.191Z,8.07
2019-04-03T18:24:39.438Z,8.11
2019-04-03T18:27:07.717Z,8.17
2019-04-03T18:29:37.981Z,8.10
2019-04-03T18:32:06.250Z,8.13
2019-04-03T18:34:36.071Z,8.15
2019-04-03T18:37:07.339Z,8.15
2019-04-03T18:39:35.157Z,8.09
2019-04-03T18:42:03.435Z,8.02
2019-04-03T18:44:31.935Z,8.13
2019-04-03T18:47:00.209Z,7.98
2019-04-03T18:49:28.462Z,7.99
2019-04-03T18:51:56.732Z,7.98
2019-04-03T18:54:25.748Z,8.09
2019-04-03T18:56:54.026Z,8.11
2019-04-03T18:59:23.967Z,8.13
2019-04-03T19:01:52.846Z,8.07
2019-04-03T19:04:23.200Z,8.07
2019-04-03T19:06:50.844Z,8.04
2019-04-03T19:09:21.242Z,7.98
2019-04-03T19:11:51.446Z,7.95
2019-04-03T19:14:27.199Z,8.08
2019-04-03T19:16:52.715Z,8.03
2019-04-03T19:19:22.850Z,8.14
2019-04-03T19:21:54.337Z,8.07
2019-04-03T19:24:22.872Z,8.09
2019-04-03T19:26:52.110Z,8.28
2019-04-03T19:29:20.939Z,8.20
2019-04-03T19:31:49.272Z,8.10
2019-04-03T19:34:20.191Z,8.05
2019-04-03T19:36:48.460Z,8.01
2019-04-03T19:39:16.765Z,8.05
2019-04-03T19:41:45.023Z,8.09
2019-04-03T19:44:13.301Z,7.93
2019-04-03T19:46:41.559Z,7.73
2019-04-03T19:49:09.834Z,7.81
2019-04-03T19:51:38.345Z,7.85
2019-04-03T19:54:06.628Z,7.60
2019-04-03T19:56:34.889Z,7.59
2019-04-03T19:59:04.850Z,7.54
2019-04-03T20:01:33.819Z,7.64
2019-04-03T20:04:02.098Z,7.58
2019-04-03T20:06:30.359Z,7.65
2019-04-03T20:09:00.924Z,7.57
2019-04-03T20:11:29.399Z,7.37
2019-04-03T20:13:58.034Z,7.36
2019-04-03T20:16:26.294Z,7.02
2019-04-03T20:18:56.484Z,6.63
2019-04-03T20:21:24.240Z,6.42
2019-04-03T20:23:52.529Z,6.33
2019-04-03T20:26:20.778Z,6.23
2019-04-03T20:28:49.819Z,6.23
2019-04-03T20:31:18.434Z,6.13
2019-04-03T20:33:46.709Z,6.17
2019-04-03T20:36:16.741Z,6.16
2019-04-03T20:38:45.097Z,5.96
2019-04-03T20:41:13.341Z,5.87
2019-04-03T20:43:43.234Z,5.82
2019-04-03T20:46:11.587Z,5.90
2019-04-03T20:48:39.878Z,5.78
2019-04-03T20:51:09.079Z,5.71
2019-04-03T20:53:37.794Z,5.59
2019-04-03T20:56:06.054Z,5.69
2019-04-03T20:58:34.330Z,5.74
2019-04-03T21:01:06.722Z,5.78
2019-04-03T21:03:32.583Z,5.73
2019-04-03T21:06:00.843Z,5.76
2019-04-03T21:08:31.424Z,5.78
2019-04-03T21:11:01.930Z,5.83
2019-04-03T21:13:30.623Z,5.80
2019-04-03T21:15:58.896Z,5.90
2019-04-03T21:18:27.951Z,5.85
2019-04-03T21:20:56.579Z,5.79
2019-04-03T21:23:24.836Z,5.98
2019-04-03T21:25:53.681Z,5.92
2019-04-03T21:28:21.933Z,5.90
2019-04-03T21:30:50.227Z,5.64
2019-04-03T21:33:18.487Z,5.80
2019-04-03T21:35:46.760Z,5.97
2019-04-03T21:38:15.017Z,5.88
2019-04-03T21:40:43.294Z,5.88
2019-04-03T21:43:11.536Z,5.95
2019-04-03T21:45:39.806Z,5.79
2019-04-03T21:48:08.060Z,5.69
2019-04-03T21:50:36.340Z,5.69
2019-04-03T21:53:04.585Z,5.84
2019-04-03T21:55:34.720Z,5.86
2019-04-03T21:58:02.833Z,5.88
2019-04-03T22:00:55.233Z,5.83
2019-04-03T22:03:23.788Z,5.87
2019-04-03T22:05:55.871Z,5.81
2019-04-03T22:08:22.599Z,5.83
2019-04-03T22:10:50.881Z,5.76
2019-04-03T22:13:19.150Z,5.82
2019-04-03T22:15:47.418Z,5.81
2019-04-03T22:18:15.675Z,5.83
2019-04-03T22:20:44.720Z,5.66
2019-04-03T22:23:12.971Z,5.56
2019-04-03T22:25:41.225Z,5.41
2019-04-03T22:28:09.512Z,5.28
2019-04-03T22:30:37.770Z,5.26
2019-04-03T22:33:06.048Z,5.35
2019-04-03T22:35:34.307Z,5.35
2019-04-03T22:38:05.295Z,5.31
2019-04-03T22:40:33.243Z,5.22
2019-04-03T22:43:03.223Z,5.54
2019-04-03T22:45:32.044Z,5.63
2019-04-03T22:48:00.322Z,5.64
2019-04-03T22:50:28.576Z,5.64
2019-04-03T22:52:56.853Z,5.52
2019-04-03T22:55:25.101Z,5.36
2019-04-03T22:57:53.373Z,5.49
2019-04-03T23:00:21.801Z,5.72
2019-04-03T23:02:50.072Z,5.78
2019-04-03T23:05:18.330Z,5.53
2019-04-03T23:07:46.608Z,5.30
2019-04-03T23:10:14.863Z,5.10
2019-04-03T23:12:43.705Z,5.20
2019-04-03T23:15:11.957Z,5.42
2019-04-03T23:17:40.800Z,5.51
2019-04-03T23:20:09.822Z,5.53
2019-04-03T23:22:38.096Z,5.39
2019-04-03T23:25:06.816Z,5.33
2019-04-03T23:27:36.526Z,5.40
2019-04-03T23:30:06.318Z,5.28
2019-04-03T23:32:34.588Z,5.27
2019-04-03T23:35:04.216Z,5.35
2019-04-03T23:37:32.493Z,5.20
2019-04-03T23:40:01.588Z,5.50
2019-04-03T23:42:29.910Z,5.61
2019-04-03T23:44:58.186Z,5.43
2019-04-03T23:47:26.439Z,5.40
2019-04-03T23:49:55.487Z,5.41
2019-04-03T23:52:23.743Z,5.25
2019-04-03T23:54:52.023Z,5.19
2019-04-03T23:57:20.274Z,5.23
2019-04-03T23:59:48.547Z,5.31
